sensor_id;sensor_type;location;lat;lon;timestamp;P1;durP1;ratioP1;P2;durP2;ratioP2
11269;SDS011;5692;48.956;9.200;2022-12-18T00:01:47;72.57;;;69.07;;
11269;SDS011;5692;48.956;9.200;2022-12-18T00:04:20;71.75;;;68.25;;
11269;SDS011;5692;48.956;9.200;2022-12-18T00:06:46;70.15;;;66.78;;
11269;SDS011;5692;48.956;9.200;2022-12-18T00:09:12;61.53;;;58.53;;
11269;SDS011;5692;48.956;9.200;2022-12-18T00:11:38;73.53;;;69.97;;
11269;SDS011;5692;48.956;9.200;2022-12-18T00:14:04;71.40;;;67.95;;
11269;SDS011;5692;48.956;9.200;2022-12-18T00:16:30;73.90;;;70.30;;
11269;SDS011;5692;48.956;9.200;2022-12-18T00:18:58;72.75;;;69.25;;
11269;SDS011;5692;48.956;9.200;2022-12-18T00:21:24;73.32;;;69.82;;
11269;SDS011;5692;48.956;9.200;2022-12-18T00:23:51;72.32;;;68.82;;
11269;SDS011;5692;48.956;9.200;2022-12-18T00:26:18;87.55;;;83.32;;
11269;SDS011;5692;48.956;9.200;2022-12-18T00:28:45;74.28;;;70.68;;
11269;SDS011;5692;48.956;9.200;2022-12-18T00:31:12;83.18;;;79.15;;
11269;SDS011;5692;48.956;9.200;2022-12-18T00:33:38;77.05;;;73.35;;
11269;SDS011;5692;48.956;9.200;2022-12-18T00:36:05;75.93;;;72.22;;
11269;SDS011;5692;48.956;9.200;2022-12-18T00:38:31;77.80;;;74.05;;
11269;SDS011;5692;48.956;9.200;2022-12-18T00:40:57;77.20;;;73.47;;
11269;SDS011;5692;48.956;9.200;2022-12-18T00:43:23;76.32;;;72.63;;
11269;SDS011;5692;48.956;9.200;2022-12-18T00:45:49;81.10;;;77.18;;
11269;SDS011;5692;48.956;9.200;2022-12-18T00:48:15;73.38;;;69.82;;
11269;SDS011;5692;48.956;9.200;2022-12-18T00:50:41;76.40;;;72.70;;
11269;SDS011;5692;48.956;9.200;2022-12-18T00:53:11;78.70;;;74.93;;
11269;SDS011;5692;48.956;9.200;2022-12-18T00:55:37;78.28;;;74.47;;
11269;SDS011;5692;48.956;9.200;2022-12-18T00:58:04;77.22;;;73.50;;
11269;SDS011;5692;48.956;9.200;2022-12-18T01:00:30;79.97;;;76.13;;
11269;SDS011;5692;48.956;9.200;2022-12-18T01:02:56;75.45;;;71.80;;
11269;SDS011;5692;48.956;9.200;2022-12-18T01:05:22;70.97;;;67.57;;
11269;SDS011;5692;48.956;9.200;2022-12-18T01:07:48;74.75;;;71.15;;
11269;SDS011;5692;48.956;9.200;2022-12-18T01:10:14;77.85;;;74.07;;
11269;SDS011;5692;48.956;9.200;2022-12-18T01:12:40;78.35;;;74.57;;
11269;SDS011;5692;48.956;9.200;2022-12-18T01:15:07;77.30;;;73.55;;
11269;SDS011;5692;48.956;9.200;2022-12-18T01:17:34;78.05;;;74.28;;
11269;SDS011;5692;48.956;9.200;2022-12-18T01:20:00;75.18;;;71.57;;
11269;SDS011;5692;48.956;9.200;2022-12-18T01:22:26;77.15;;;73.45;;
11269;SDS011;5692;48.956;9.200;2022-12-18T01:24:52;67.07;;;63.83;;
11269;SDS011;5692;48.956;9.200;2022-12-18T01:27:18;74.50;;;70.90;;
11269;SDS011;5692;48.956;9.200;2022-12-18T01:29:44;74.00;;;70.45;;
11269;SDS011;5692;48.956;9.200;2022-12-18T01:32:10;66.03;;;62.83;;
11269;SDS011;5692;48.956;9.200;2022-12-18T01:34:36;70.45;;;67.05;;
11269;SDS011;5692;48.956;9.200;2022-12-18T01:37:02;75.35;;;71.75;;
11269;SDS011;5692;48.956;9.200;2022-12-18T01:39:28;75.68;;;72.03;;
11269;SDS011;5692;48.956;9.200;2022-12-18T01:41:54;76.82;;;73.10;;
11269;SDS011;5692;48.956;9.200;2022-12-18T01:47:13;72.82;;;69.32;;
11269;SDS011;5692;48.956;9.200;2022-12-18T01:49:41;79.07;;;75.28;;
11269;SDS011;5692;48.956;9.200;2022-12-18T01:52:07;73.30;;;69.78;;
11269;SDS011;5692;48.956;9.200;2022-12-18T01:54:33;74.03;;;70.43;;
11269;SDS011;5692;48.956;9.200;2022-12-18T01:56:59;75.70;;;72.00;;
11269;SDS011;5692;48.956;9.200;2022-12-18T01:59:26;73.65;;;70.07;;
11269;SDS011;5692;48.956;9.200;2022-12-18T02:01:52;76.82;;;73.10;;
11269;SDS011;5692;48.956;9.200;2022-12-18T02:04:22;77.68;;;73.93;;
11269;SDS011;5692;48.956;9.200;2022-12-18T02:06:50;71.18;;;67.75;;
11269;SDS011;5692;48.956;9.200;2022-12-18T02:09:19;70.80;;;67.38;;
11269;SDS011;5692;48.956;9.200;2022-12-18T02:14:23;77.75;;;74.00;;
11269;SDS011;5692;48.956;9.200;2022-12-18T02:16:58;72.65;;;69.15;;
11269;SDS011;5692;48.956;9.200;2022-12-18T02:22:23;67.00;;;63.80;;
11269;SDS011;5692;48.956;9.200;2022-12-18T02:27:16;65.10;;;61.95;;
11269;SDS011;5692;48.956;9.200;2022-12-18T02:29:48;66.35;;;63.15;;
11269;SDS011;5692;48.956;9.200;2022-12-18T02:32:18;69.68;;;66.28;;
11269;SDS011;5692;48.956;9.200;2022-12-18T02:34:45;67.35;;;64.07;;
11269;SDS011;5692;48.956;9.200;2022-12-18T02:37:12;72.60;;;69.10;;
11269;SDS011;5692;48.956;9.200;2022-12-18T02:39:40;72.88;;;69.38;;
11269;SDS011;5692;48.956;9.200;2022-12-18T02:42:07;75.53;;;71.88;;
11269;SDS011;5692;48.956;9.200;2022-12-18T02:44:46;70.25;;;66.85;;
11269;SDS011;5692;48.956;9.200;2022-12-18T02:47:13;76.93;;;73.20;;
11269;SDS011;5692;48.956;9.200;2022-12-18T02:49:59;78.63;;;74.82;;
11269;SDS011;5692;48.956;9.200;2022-12-18T02:52:31;71.40;;;67.95;;
11269;SDS011;5692;48.956;9.200;2022-12-18T03:00:18;71.60;;;68.15;;
11269;SDS011;5692;48.956;9.200;2022-12-18T03:05:31;77.15;;;73.43;;
11269;SDS011;5692;48.956;9.200;2022-12-18T03:10:35;75.80;;;72.13;;
11269;SDS011;5692;48.956;9.200;2022-12-18T03:13:08;74.63;;;71.03;;
11269;SDS011;5692;48.956;9.200;2022-12-18T03:15:37;72.38;;;68.88;;
11269;SDS011;5692;48.956;9.200;2022-12-18T03:18:06;77.35;;;73.65;;
11269;SDS011;5692;48.956;9.200;2022-12-18T03:20:34;75.82;;;72.18;;
11269;SDS011;5692;48.956;9.200;2022-12-18T03:23:10;75.00;;;71.40;;
11269;SDS011;5692;48.956;9.200;2022-12-18T03:25:39;67.65;;;64.35;;
11269;SDS011;5692;48.956;9.200;2022-12-18T03:28:06;64.20;;;61.10;;
11269;SDS011;5692;48.956;9.200;2022-12-18T03:30:34;67.65;;;64.38;;
11269;SDS011;5692;48.956;9.200;2022-12-18T03:35:33;77.63;;;73.88;;
11269;SDS011;5692;48.956;9.200;2022-12-18T03:38:01;71.40;;;67.95;;
11269;SDS011;5692;48.956;9.200;2022-12-18T03:40:29;71.20;;;67.78;;
11269;SDS011;5692;48.956;9.200;2022-12-18T03:42:59;66.32;;;63.13;;
11269;SDS011;5692;48.956;9.200;2022-12-18T03:45:34;64.28;;;61.17;;
11269;SDS011;5692;48.956;9.200;2022-12-18T03:50:52;70.15;;;66.75;;
11269;SDS011;5692;48.956;9.200;2022-12-18T03:55:53;71.93;;;68.43;;
11269;SDS011;5692;48.956;9.200;2022-12-18T03:58:20;70.75;;;67.35;;
11269;SDS011;5692;48.956;9.200;2022-12-18T04:00:49;73.35;;;69.82;;
11269;SDS011;5692;48.956;9.200;2022-12-18T04:03:15;69.40;;;66.03;;
11269;SDS011;5692;48.956;9.200;2022-12-18T04:05:42;71.43;;;67.97;;
11269;SDS011;5692;48.956;9.200;2022-12-18T04:08:09;67.50;;;64.25;;
11269;SDS011;5692;48.956;9.200;2022-12-18T04:10:35;70.18;;;66.78;;
11269;SDS011;5692;48.956;9.200;2022-12-18T04:13:01;72.43;;;68.93;;
11269;SDS011;5692;48.956;9.200;2022-12-18T04:15:27;69.10;;;65.78;;
11269;SDS011;5692;48.956;9.200;2022-12-18T04:17:53;77.00;;;73.30;;
11269;SDS011;5692;48.956;9.200;2022-12-18T04:20:19;74.60;;;71.00;;
11269;SDS011;5692;48.956;9.200;2022-12-18T04:22:46;68.38;;;65.07;;
11269;SDS011;5692;48.956;9.200;2022-12-18T04:25:12;75.35;;;71.72;;
11269;SDS011;5692;48.956;9.200;2022-12-18T04:27:38;77.40;;;73.68;;
11269;SDS011;5692;48.956;9.200;2022-12-18T04:30:04;76.43;;;72.72;;
11269;SDS011;5692;48.956;9.200;2022-12-18T04:32:30;75.03;;;71.40;;
11269;SDS011;5692;48.956;9.200;2022-12-18T04:34:56;72.90;;;69.40;;
11269;SDS011;5692;48.956;9.200;2022-12-18T04:37:22;71.75;;;68.25;;
11269;SDS011;5692;48.956;9.200;2022-12-18T04:39:48;72.13;;;68.63;;
11269;SDS011;5692;48.956;9.200;2022-12-18T04:42:14;68.35;;;65.05;;
11269;SDS011;5692;48.956;9.200;2022-12-18T04:44:40;72.57;;;69.07;;
11269;SDS011;5692;48.956;9.200;2022-12-18T04:47:06;76.97;;;73.28;;
11269;SDS011;5692;48.956;9.200;2022-12-18T04:49:32;74.78;;;71.18;;
11269;SDS011;5692;48.956;9.200;2022-12-18T04:51:58;69.95;;;66.55;;
11269;SDS011;5692;48.956;9.200;2022-12-18T04:54:24;70.88;;;67.47;;
11269;SDS011;5692;48.956;9.200;2022-12-18T04:56:50;72.85;;;69.35;;
11269;SDS011;5692;48.956;9.200;2022-12-18T04:59:16;69.30;;;65.95;;
11269;SDS011;5692;48.956;9.200;2022-12-18T05:01:42;73.25;;;69.75;;
11269;SDS011;5692;48.956;9.200;2022-12-18T05:04:08;69.32;;;65.97;;
11269;SDS011;5692;48.956;9.200;2022-12-18T05:06:34;73.78;;;70.18;;
11269;SDS011;5692;48.956;9.200;2022-12-18T05:09:00;68.70;;;65.40;;
11269;SDS011;5692;48.956;9.200;2022-12-18T05:11:26;73.60;;;70.03;;
11269;SDS011;5692;48.956;9.200;2022-12-18T05:13:52;70.55;;;67.15;;
11269;SDS011;5692;48.956;9.200;2022-12-18T05:16:18;75.25;;;71.63;;
11269;SDS011;5692;48.956;9.200;2022-12-18T05:18:44;71.20;;;67.78;;
11269;SDS011;5692;48.956;9.200;2022-12-18T05:21:10;73.38;;;69.82;;
11269;SDS011;5692;48.956;9.200;2022-12-18T05:23:36;69.82;;;66.43;;
11269;SDS011;5692;48.956;9.200;2022-12-18T05:26:03;71.10;;;67.65;;
11269;SDS011;5692;48.956;9.200;2022-12-18T05:28:31;71.05;;;67.65;;
11269;SDS011;5692;48.956;9.200;2022-12-18T05:30:58;69.68;;;66.28;;
11269;SDS011;5692;48.956;9.200;2022-12-18T05:33:25;68.95;;;65.65;;
11269;SDS011;5692;48.956;9.200;2022-12-18T05:35:54;63.45;;;60.38;;
11269;SDS011;5692;48.956;9.200;2022-12-18T05:38:22;66.45;;;63.25;;
11269;SDS011;5692;48.956;9.200;2022-12-18T05:40:48;72.20;;;68.70;;
11269;SDS011;5692;48.956;9.200;2022-12-18T05:43:14;79.43;;;75.60;;
11269;SDS011;5692;48.956;9.200;2022-12-18T05:45:41;74.70;;;71.10;;
11269;SDS011;5692;48.956;9.200;2022-12-18T05:48:07;77.70;;;73.95;;
11269;SDS011;5692;48.956;9.200;2022-12-18T05:50:34;71.18;;;67.75;;
11269;SDS011;5692;48.956;9.200;2022-12-18T05:53:01;74.93;;;71.30;;
11269;SDS011;5692;48.956;9.200;2022-12-18T05:55:27;73.32;;;69.80;;
11269;SDS011;5692;48.956;9.200;2022-12-18T05:57:53;68.47;;;65.18;;
11269;SDS011;5692;48.956;9.200;2022-12-18T06:00:19;69.20;;;65.88;;
11269;SDS011;5692;48.956;9.200;2022-12-18T06:02:48;71.82;;;68.35;;
11269;SDS011;5692;48.956;9.200;2022-12-18T06:05:14;74.68;;;71.07;;
11269;SDS011;5692;48.956;9.200;2022-12-18T06:07:40;74.68;;;71.07;;
11269;SDS011;5692;48.956;9.200;2022-12-18T06:10:06;74.43;;;70.82;;
11269;SDS011;5692;48.956;9.200;2022-12-18T06:12:32;72.13;;;68.63;;
11269;SDS011;5692;48.956;9.200;2022-12-18T06:14:59;76.70;;;73.00;;
11269;SDS011;5692;48.956;9.200;2022-12-18T06:17:31;68.03;;;64.72;;
11269;SDS011;5692;48.956;9.200;2022-12-18T06:19:58;66.75;;;63.50;;
11269;SDS011;5692;48.956;9.200;2022-12-18T06:22:24;73.97;;;70.38;;
11269;SDS011;5692;48.956;9.200;2022-12-18T06:24:50;80.80;;;76.90;;
11269;SDS011;5692;48.956;9.200;2022-12-18T06:27:16;70.38;;;66.97;;
11269;SDS011;5692;48.956;9.200;2022-12-18T06:29:42;67.30;;;64.05;;
11269;SDS011;5692;48.956;9.200;2022-12-18T06:32:08;67.63;;;64.32;;
11269;SDS011;5692;48.956;9.200;2022-12-18T06:34:34;68.07;;;64.80;;
11269;SDS011;5692;48.956;9.200;2022-12-18T06:37:02;67.03;;;63.80;;
11269;SDS011;5692;48.956;9.200;2022-12-18T06:39:28;72.22;;;68.72;;
11269;SDS011;5692;48.956;9.200;2022-12-18T06:41:54;71.43;;;67.97;;
11269;SDS011;5692;48.956;9.200;2022-12-18T06:44:20;70.18;;;66.78;;
11269;SDS011;5692;48.956;9.200;2022-12-18T06:46:46;64.45;;;61.35;;
11269;SDS011;5692;48.956;9.200;2022-12-18T06:49:12;69.18;;;65.82;;
11269;SDS011;5692;48.956;9.200;2022-12-18T06:51:38;73.78;;;70.18;;
11269;SDS011;5692;48.956;9.200;2022-12-18T06:54:04;69.82;;;66.43;;
11269;SDS011;5692;48.956;9.200;2022-12-18T06:56:30;69.47;;;66.10;;
11269;SDS011;5692;48.956;9.200;2022-12-18T06:58:56;65.68;;;62.47;;
11269;SDS011;5692;48.956;9.200;2022-12-18T07:01:22;69.65;;;66.25;;
11269;SDS011;5692;48.956;9.200;2022-12-18T07:03:55;71.95;;;68.45;;
11269;SDS011;5692;48.956;9.200;2022-12-18T07:06:22;78.70;;;74.90;;
11269;SDS011;5692;48.956;9.200;2022-12-18T07:08:48;86.20;;;82.05;;
11269;SDS011;5692;48.956;9.200;2022-12-18T07:11:15;76.97;;;73.28;;
11269;SDS011;5692;48.956;9.200;2022-12-18T07:13:41;68.55;;;65.25;;
11269;SDS011;5692;48.956;9.200;2022-12-18T07:16:08;70.22;;;66.82;;
11269;SDS011;5692;48.956;9.200;2022-12-18T07:18:34;75.15;;;71.55;;
11269;SDS011;5692;48.956;9.200;2022-12-18T07:21:07;61.75;;;58.75;;
11269;SDS011;5692;48.956;9.200;2022-12-18T07:23:33;69.82;;;66.45;;
11269;SDS011;5692;48.956;9.200;2022-12-18T07:26:01;65.13;;;61.97;;
11269;SDS011;5692;48.956;9.200;2022-12-18T07:28:27;61.28;;;58.30;;
11269;SDS011;5692;48.956;9.200;2022-12-18T07:30:53;75.63;;;71.97;;
11269;SDS011;5692;48.956;9.200;2022-12-18T07:33:19;67.55;;;64.28;;
11269;SDS011;5692;48.956;9.200;2022-12-18T07:35:45;73.20;;;69.70;;
11269;SDS011;5692;48.956;9.200;2022-12-18T07:38:11;72.47;;;68.97;;
11269;SDS011;5692;48.956;9.200;2022-12-18T07:40:37;69.82;;;66.43;;
11269;SDS011;5692;48.956;9.200;2022-12-18T07:43:03;71.35;;;67.90;;
11269;SDS011;5692;48.956;9.200;2022-12-18T07:45:32;70.78;;;67.35;;
11269;SDS011;5692;48.956;9.200;2022-12-18T07:47:58;73.00;;;69.47;;
11269;SDS011;5692;48.956;9.200;2022-12-18T07:50:24;71.72;;;68.25;;
11269;SDS011;5692;48.956;9.200;2022-12-18T07:52:50;72.32;;;68.82;;
11269;SDS011;5692;48.956;9.200;2022-12-18T07:55:16;66.72;;;63.53;;
11269;SDS011;5692;48.956;9.200;2022-12-18T07:57:42;75.60;;;71.95;;
11269;SDS011;5692;48.956;9.200;2022-12-18T08:00:08;68.53;;;65.22;;
11269;SDS011;5692;48.956;9.200;2022-12-18T08:02:35;69.70;;;66.30;;
11269;SDS011;5692;48.956;9.200;2022-12-18T08:05:01;70.60;;;67.20;;
11269;SDS011;5692;48.956;9.200;2022-12-18T08:07:27;73.82;;;70.25;;
11269;SDS011;5692;48.956;9.200;2022-12-18T08:09:53;73.45;;;69.90;;
11269;SDS011;5692;48.956;9.200;2022-12-18T08:12:19;70.80;;;67.40;;
11269;SDS011;5692;48.956;9.200;2022-12-18T08:14:45;71.28;;;67.85;;
11269;SDS011;5692;48.956;9.200;2022-12-18T08:17:11;75.22;;;71.57;;
11269;SDS011;5692;48.956;9.200;2022-12-18T08:19:37;72.15;;;68.65;;
11269;SDS011;5692;48.956;9.200;2022-12-18T08:22:02;66.72;;;63.53;;
11269;SDS011;5692;48.956;9.200;2022-12-18T08:24:28;72.30;;;68.80;;
11269;SDS011;5692;48.956;9.200;2022-12-18T08:26:54;72.68;;;69.18;;
11269;SDS011;5692;48.956;9.200;2022-12-18T08:29:22;68.75;;;65.43;;
11269;SDS011;5692;48.956;9.200;2022-12-18T08:31:48;74.20;;;70.60;;
11269;SDS011;5692;48.956;9.200;2022-12-18T08:34:14;74.50;;;70.90;;
11269;SDS011;5692;48.956;9.200;2022-12-18T08:36:40;67.32;;;64.03;;
11269;SDS011;5692;48.956;9.200;2022-12-18T08:39:06;67.80;;;64.53;;
11269;SDS011;5692;48.956;9.200;2022-12-18T08:41:32;79.28;;;75.47;;
11269;SDS011;5692;48.956;9.200;2022-12-18T08:43:58;68.30;;;65.00;;
11269;SDS011;5692;48.956;9.200;2022-12-18T08:46:43;72.55;;;69.05;;
11269;SDS011;5692;48.956;9.200;2022-12-18T08:49:10;76.72;;;73.03;;
11269;SDS011;5692;48.956;9.200;2022-12-18T08:51:37;74.18;;;70.57;;
11269;SDS011;5692;48.956;9.200;2022-12-18T08:54:03;72.13;;;68.63;;
11269;SDS011;5692;48.956;9.200;2022-12-18T08:56:29;74.68;;;71.07;;
11269;SDS011;5692;48.956;9.200;2022-12-18T08:58:55;77.18;;;73.45;;
11269;SDS011;5692;48.956;9.200;2022-12-18T09:01:22;75.40;;;71.78;;
11269;SDS011;5692;48.956;9.200;2022-12-18T09:03:48;80.30;;;76.40;;
11269;SDS011;5692;48.956;9.200;2022-12-18T09:06:15;76.68;;;72.97;;
11269;SDS011;5692;48.956;9.200;2022-12-18T09:08:45;81.13;;;77.22;;
11269;SDS011;5692;48.956;9.200;2022-12-18T09:11:24;69.32;;;65.97;;
11269;SDS011;5692;48.956;9.200;2022-12-18T09:13:51;71.90;;;68.43;;
11269;SDS011;5692;48.956;9.200;2022-12-18T09:16:17;86.13;;;81.97;;
11269;SDS011;5692;48.956;9.200;2022-12-18T09:18:44;70.32;;;66.93;;
11269;SDS011;5692;48.956;9.200;2022-12-18T09:21:14;84.30;;;80.22;;
11269;SDS011;5692;48.956;9.200;2022-12-18T09:23:41;84.28;;;80.22;;
11269;SDS011;5692;48.956;9.200;2022-12-18T09:26:07;86.32;;;82.15;;
11269;SDS011;5692;48.956;9.200;2022-12-18T09:28:33;79.78;;;75.93;;
11269;SDS011;5692;48.956;9.200;2022-12-18T09:31:03;78.43;;;74.65;;
11269;SDS011;5692;48.956;9.200;2022-12-18T09:33:29;81.95;;;78.00;;
11269;SDS011;5692;48.956;9.200;2022-12-18T09:35:55;88.75;;;84.45;;
11269;SDS011;5692;48.956;9.200;2022-12-18T09:38:21;87.28;;;83.07;;
11269;SDS011;5692;48.956;9.200;2022-12-18T09:40:49;88.50;;;84.20;;
11269;SDS011;5692;48.956;9.200;2022-12-18T09:43:17;94.72;;;90.15;;
11269;SDS011;5692;48.956;9.200;2022-12-18T09:45:46;91.50;;;87.10;;
11269;SDS011;5692;48.956;9.200;2022-12-18T09:48:15;96.90;;;92.25;;
11269;SDS011;5692;48.956;9.200;2022-12-18T09:50:43;87.82;;;83.57;;
11269;SDS011;5692;48.956;9.200;2022-12-18T09:53:12;98.20;;;93.47;;
11269;SDS011;5692;48.956;9.200;2022-12-18T09:55:40;84.43;;;80.35;;
11269;SDS011;5692;48.956;9.200;2022-12-18T10:00:35;94.25;;;89.72;;
11269;SDS011;5692;48.956;9.200;2022-12-18T10:03:12;86.85;;;82.65;;
11269;SDS011;5692;48.956;9.200;2022-12-18T10:10:44;97.43;;;92.72;;
11269;SDS011;5692;48.956;9.200;2022-12-18T10:20:46;79.63;;;75.78;;
11269;SDS011;5692;48.956;9.200;2022-12-18T10:23:17;81.15;;;77.25;;
11269;SDS011;5692;48.956;9.200;2022-12-18T10:25:50;78.05;;;74.25;;
11269;SDS011;5692;48.956;9.200;2022-12-18T10:28:17;76.82;;;73.10;;
11269;SDS011;5692;48.956;9.200;2022-12-18T10:30:44;77.95;;;74.18;;
11269;SDS011;5692;48.956;9.200;2022-12-18T10:33:18;77.80;;;74.05;;
11269;SDS011;5692;48.956;9.200;2022-12-18T10:35:44;82.15;;;78.20;;
11269;SDS011;5692;48.956;9.200;2022-12-18T10:40:56;70.38;;;66.97;;
11269;SDS011;5692;48.956;9.200;2022-12-18T10:43:33;73.82;;;70.25;;
11269;SDS011;5692;48.956;9.200;2022-12-18T10:48:28;86.15;;;82.00;;
11269;SDS011;5692;48.956;9.200;2022-12-18T10:50:55;79.85;;;76.00;;
11269;SDS011;5692;48.956;9.200;2022-12-18T10:53:23;87.05;;;82.85;;
11269;SDS011;5692;48.956;9.200;2022-12-18T10:55:50;77.93;;;74.15;;
11269;SDS011;5692;48.956;9.200;2022-12-18T10:58:31;86.88;;;82.68;;
11269;SDS011;5692;48.956;9.200;2022-12-18T11:03:41;88.65;;;84.35;;
11269;SDS011;5692;48.956;9.200;2022-12-18T11:08:36;93.32;;;88.82;;
11269;SDS011;5692;48.956;9.200;2022-12-18T11:11:02;89.65;;;85.32;;
11269;SDS011;5692;48.956;9.200;2022-12-18T11:13:31;81.78;;;77.85;;
11269;SDS011;5692;48.956;9.200;2022-12-18T11:15:57;81.20;;;77.30;;
11269;SDS011;5692;48.956;9.200;2022-12-18T11:18:25;83.05;;;79.05;;
11269;SDS011;5692;48.956;9.200;2022-12-18T11:20:53;82.75;;;78.75;;
11269;SDS011;5692;48.956;9.200;2022-12-18T11:23:20;85.50;;;81.40;;
11269;SDS011;5692;48.956;9.200;2022-12-18T11:25:52;88.63;;;84.32;;
11269;SDS011;5692;48.956;9.200;2022-12-18T11:28:29;84.88;;;80.80;;
11269;SDS011;5692;48.956;9.200;2022-12-18T11:33:41;94.60;;;90.00;;
11269;SDS011;5692;48.956;9.200;2022-12-18T11:36:08;102.57;;;97.65;;
11269;SDS011;5692;48.956;9.200;2022-12-18T11:38:36;84.40;;;80.30;;
11269;SDS011;5692;48.956;9.200;2022-12-18T11:46:05;100.43;;;95.63;;
11269;SDS011;5692;48.956;9.200;2022-12-18T11:48:43;93.75;;;89.25;;
11269;SDS011;5692;48.956;9.200;2022-12-18T11:51:11;92.72;;;88.25;;
11269;SDS011;5692;48.956;9.200;2022-12-18T11:53:38;96.25;;;91.60;;
11269;SDS011;5692;48.956;9.200;2022-12-18T11:58:51;95.38;;;90.80;;
11269;SDS011;5692;48.956;9.200;2022-12-18T12:01:40;106.95;;;101.80;;
11269;SDS011;5692;48.956;9.200;2022-12-18T12:34:35;109.50;;;104.20;;
11269;SDS011;5692;48.956;9.200;2022-12-18T12:37:11;108.05;;;102.85;;
11269;SDS011;5692;48.956;9.200;2022-12-18T12:39:39;102.18;;;97.28;;
11269;SDS011;5692;48.956;9.200;2022-12-18T12:42:12;111.50;;;106.13;;
11269;SDS011;5692;48.956;9.200;2022-12-18T12:44:57;104.90;;;99.85;;
11269;SDS011;5692;48.956;9.200;2022-12-18T12:47:32;108.40;;;103.20;;
11269;SDS011;5692;48.956;9.200;2022-12-18T12:50:02;116.28;;;110.68;;
11269;SDS011;5692;48.956;9.200;2022-12-18T12:52:34;116.15;;;110.55;;
11269;SDS011;5692;48.956;9.200;2022-12-18T12:55:02;108.43;;;103.20;;
11269;SDS011;5692;48.956;9.200;2022-12-18T12:57:31;126.95;;;120.88;;
11269;SDS011;5692;48.956;9.200;2022-12-18T13:00:07;115.13;;;109.60;;
11269;SDS011;5692;48.956;9.200;2022-12-18T13:05:38;112.90;;;107.47;;
11269;SDS011;5692;48.956;9.200;2022-12-18T13:08:07;115.97;;;110.38;;
11269;SDS011;5692;48.956;9.200;2022-12-18T13:10:34;124.10;;;118.15;;
11269;SDS011;5692;48.956;9.200;2022-12-18T13:13:07;116.60;;;111.00;;
11269;SDS011;5692;48.956;9.200;2022-12-18T13:20:34;115.50;;;109.95;;
11269;SDS011;5692;48.956;9.200;2022-12-18T13:23:01;110.65;;;105.35;;
11269;SDS011;5692;48.956;9.200;2022-12-18T13:25:28;109.88;;;104.60;;
11269;SDS011;5692;48.956;9.200;2022-12-18T13:28:08;105.32;;;100.28;;
11269;SDS011;5692;48.956;9.200;2022-12-18T13:35:50;107.70;;;102.50;;
11269;SDS011;5692;48.956;9.200;2022-12-18T13:38:32;118.85;;;113.15;;
11269;SDS011;5692;48.956;9.200;2022-12-18T13:43:45;110.00;;;104.70;;
11269;SDS011;5692;48.956;9.200;2022-12-18T13:48:51;106.10;;;101.00;;
11269;SDS011;5692;48.956;9.200;2022-12-18T13:51:17;105.00;;;99.95;;
11269;SDS011;5692;48.956;9.200;2022-12-18T13:53:49;98.65;;;93.93;;
11269;SDS011;5692;48.956;9.200;2022-12-18T13:56:21;111.40;;;106.05;;
11269;SDS011;5692;48.956;9.200;2022-12-18T14:01:32;102.25;;;97.35;;
11269;SDS011;5692;48.956;9.200;2022-12-18T14:04:18;106.22;;;101.13;;
11269;SDS011;5692;48.956;9.200;2022-12-18T14:06:45;107.47;;;102.28;;
11269;SDS011;5692;48.956;9.200;2022-12-18T14:09:46;99.35;;;94.57;;
11269;SDS011;5692;48.956;9.200;2022-12-18T14:12:04;98.28;;;93.55;;
11269;SDS011;5692;48.956;9.200;2022-12-18T14:14:50;100.70;;;95.88;;
11269;SDS011;5692;48.956;9.200;2022-12-18T14:17:16;108.47;;;103.28;;
11269;SDS011;5692;48.956;9.200;2022-12-18T14:19:43;110.72;;;105.40;;
11269;SDS011;5692;48.956;9.200;2022-12-18T14:22:14;109.55;;;104.28;;
11269;SDS011;5692;48.956;9.200;2022-12-18T14:24:40;115.28;;;109.72;;
11269;SDS011;5692;48.956;9.200;2022-12-18T14:27:20;104.35;;;99.35;;
11269;SDS011;5692;48.956;9.200;2022-12-18T14:29:47;106.70;;;101.60;;
11269;SDS011;5692;48.956;9.200;2022-12-18T14:32:19;107.45;;;102.28;;
11269;SDS011;5692;48.956;9.200;2022-12-18T14:34:46;111.32;;;105.97;;
11269;SDS011;5692;48.956;9.200;2022-12-18T14:37:13;110.32;;;105.03;;
11269;SDS011;5692;48.956;9.200;2022-12-18T14:39:39;114.65;;;109.15;;
11269;SDS011;5692;48.956;9.200;2022-12-18T14:42:09;101.78;;;96.88;;
11269;SDS011;5692;48.956;9.200;2022-12-18T14:44:35;109.13;;;103.88;;
11269;SDS011;5692;48.956;9.200;2022-12-18T14:47:01;114.88;;;109.35;;
11269;SDS011;5692;48.956;9.200;2022-12-18T14:49:33;115.72;;;110.13;;
11269;SDS011;5692;48.956;9.200;2022-12-18T14:52:05;113.88;;;108.40;;
11269;SDS011;5692;48.956;9.200;2022-12-18T14:54:32;117.63;;;111.97;;
11269;SDS011;5692;48.956;9.200;2022-12-18T14:57:01;106.53;;;101.43;;
11269;SDS011;5692;48.956;9.200;2022-12-18T14:59:28;106.38;;;101.28;;
11269;SDS011;5692;48.956;9.200;2022-12-18T15:01:57;105.80;;;100.70;;
11269;SDS011;5692;48.956;9.200;2022-12-18T15:04:28;114.50;;;109.00;;
11269;SDS011;5692;48.956;9.200;2022-12-18T15:09:30;109.88;;;104.57;;
11269;SDS011;5692;48.956;9.200;2022-12-18T15:11:56;104.00;;;99.00;;
11269;SDS011;5692;48.956;9.200;2022-12-18T15:14:33;101.55;;;96.65;;
11269;SDS011;5692;48.956;9.200;2022-12-18T15:17:21;103.10;;;98.15;;
11269;SDS011;5692;48.956;9.200;2022-12-18T15:19:48;98.93;;;94.18;;
11269;SDS011;5692;48.956;9.200;2022-12-18T15:24:45;101.93;;;97.03;;
11269;SDS011;5692;48.956;9.200;2022-12-18T15:32:33;93.80;;;89.30;;
11269;SDS011;5692;48.956;9.200;2022-12-18T15:37:35;92.13;;;87.70;;
11269;SDS011;5692;48.956;9.200;2022-12-18T15:40:05;108.15;;;102.95;;
11269;SDS011;5692;48.956;9.200;2022-12-18T15:42:32;95.75;;;91.15;;
11269;SDS011;5692;48.956;9.200;2022-12-18T15:45:16;100.80;;;95.95;;
11269;SDS011;5692;48.956;9.200;2022-12-18T15:47:43;107.65;;;102.45;;
11269;SDS011;5692;48.956;9.200;2022-12-18T15:50:09;96.32;;;91.70;;
11269;SDS011;5692;48.956;9.200;2022-12-18T15:52:43;103.78;;;98.78;;
11269;SDS011;5692;48.956;9.200;2022-12-18T15:55:19;99.45;;;94.68;;
11269;SDS011;5692;48.956;9.200;2022-12-18T15:58:05;99.70;;;94.90;;
11269;SDS011;5692;48.956;9.200;2022-12-18T16:00:31;102.65;;;97.72;;
11269;SDS011;5692;48.956;9.200;2022-12-18T16:02:58;99.93;;;95.13;;
11269;SDS011;5692;48.956;9.200;2022-12-18T16:05:24;103.00;;;98.05;;
11269;SDS011;5692;48.956;9.200;2022-12-18T16:07:51;106.15;;;101.05;;
11269;SDS011;5692;48.956;9.200;2022-12-18T16:10:17;105.90;;;100.80;;
11269;SDS011;5692;48.956;9.200;2022-12-18T16:12:43;119.47;;;113.72;;
11269;SDS011;5692;48.956;9.200;2022-12-18T16:15:10;126.20;;;120.15;;
11269;SDS011;5692;48.956;9.200;2022-12-18T16:17:38;119.82;;;114.07;;
11269;SDS011;5692;48.956;9.200;2022-12-18T16:20:05;136.27;;;129.73;;
11269;SDS011;5692;48.956;9.200;2022-12-18T16:22:31;129.80;;;123.57;;
11269;SDS011;5692;48.956;9.200;2022-12-18T16:24:57;119.97;;;114.18;;
11269;SDS011;5692;48.956;9.200;2022-12-18T16:27:23;121.53;;;115.70;;
11269;SDS011;5692;48.956;9.200;2022-12-18T16:29:50;109.85;;;104.55;;
11269;SDS011;5692;48.956;9.200;2022-12-18T16:32:19;85.97;;;81.82;;
11269;SDS011;5692;48.956;9.200;2022-12-18T16:34:46;89.63;;;85.32;;
11269;SDS011;5692;48.956;9.200;2022-12-18T16:37:13;90.95;;;86.55;;
11269;SDS011;5692;48.956;9.200;2022-12-18T16:39:39;97.50;;;92.80;;
11269;SDS011;5692;48.956;9.200;2022-12-18T16:42:06;95.32;;;90.72;;
11269;SDS011;5692;48.956;9.200;2022-12-18T16:44:33;96.70;;;92.05;;
11269;SDS011;5692;48.956;9.200;2022-12-18T16:46:59;85.45;;;81.32;;